createdAt,value
2019-03-16T00:00:41.983Z,7.24
2019-03-16T00:01:41.979Z,7.31
2019-03-16T00:02:41.975Z,7.20
2019-03-16T00:03:41.979Z,7.27
2019-03-16T00:04:41.936Z,7.25
2019-03-16T00:05:41.925Z,7.27
2019-03-16T00:06:41.923Z,7.24
2019-03-16T00:07:41.921Z,7.30
2019-03-16T00:08:41.913Z,7.20
2019-03-16T00:09:41.880Z,7.20
2019-03-16T00:10:41.872Z,7.16
2019-03-16T00:11:41.901Z,7.17
2019-03-16T00:12:41.869Z,7.17
2019-03-16T00:13:41.850Z,7.05
2019-03-16T00:14:41.837Z,7.12
2019-03-16T00:15:41.820Z,7.12
2019-03-16T00:16:41.822Z,7.02
2019-03-16T00:17:41.801Z,7.03
2019-03-16T00:18:41.797Z,6.98
2019-03-16T00:19:41.779Z,7.07
2019-03-16T00:20:41.781Z,7.06
2019-03-16T00:21:41.760Z,7.07
2019-03-16T00:22:41.751Z,7.02
2019-03-16T00:23:41.745Z,6.98
2019-03-16T00:24:41.740Z,6.95
2019-03-16T00:25:41.710Z,6.88
2019-03-16T00:26:41.701Z,6.95
2019-03-16T00:27:41.694Z,6.87
2019-03-16T00:28:41.687Z,6.87
2019-03-16T00:29:41.675Z,6.91
2019-03-16T00:30:41.660Z,6.89
2019-03-16T00:31:41.654Z,6.94
2019-03-16T00:32:41.644Z,6.94
2019-03-16T00:33:41.640Z,6.88
2019-03-16T00:34:41.618Z,6.95
2019-03-16T00:35:41.616Z,6.98
2019-03-16T00:36:41.606Z,6.97
2019-03-16T00:37:41.593Z,6.97
2019-03-16T00:38:41.592Z,6.92
2019-03-16T00:39:41.573Z,6.89
2019-03-16T00:40:41.562Z,6.91
2019-03-16T00:41:41.556Z,6.85
2019-03-16T00:42:41.536Z,6.89
2019-03-16T00:43:41.529Z,6.77
2019-03-16T00:44:41.532Z,6.81
2019-03-16T00:45:41.508Z,6.85
2019-03-16T00:46:41.503Z,6.88
2019-03-16T00:47:41.499Z,6.89
2019-03-16T00:48:41.472Z,6.77
2019-03-16T00:49:41.465Z,6.77
2019-03-16T00:50:41.465Z,6.79
2019-03-16T00:51:41.441Z,6.70
2019-03-16T00:52:41.460Z,6.73
2019-03-16T00:53:41.422Z,6.79
2019-03-16T00:54:41.479Z,6.73
2019-03-16T00:55:41.401Z,6.76
2019-03-16T00:56:41.400Z,6.74
2019-03-16T00:57:41.375Z,6.73
2019-03-16T00:58:41.379Z,6.77
2019-03-16T00:59:41.362Z,6.74
2019-03-16T01:00:41.348Z,6.74
2019-03-16T01:01:41.348Z,6.76
2019-03-16T01:02:41.327Z,6.74
2019-03-16T01:03:41.323Z,6.80
2019-03-16T01:04:41.303Z,6.76
2019-03-16T01:05:41.290Z,6.74
2019-03-16T01:06:41.286Z,6.74
2019-03-16T01:07:41.289Z,6.81
2019-03-16T01:08:41.260Z,6.79
2019-03-16T01:09:43.548Z,6.89
2019-03-16T01:10:41.322Z,6.87
2019-03-16T01:11:41.229Z,6.74
2019-03-16T01:12:41.210Z,6.73
2019-03-16T01:13:41.215Z,6.73
2019-03-16T01:14:41.281Z,6.79
2019-03-16T01:15:41.192Z,6.77
2019-03-16T01:16:41.173Z,6.79
2019-03-16T01:17:41.163Z,6.76
2019-03-16T01:18:41.161Z,6.73
2019-03-16T01:19:41.176Z,6.76
2019-03-16T01:20:41.150Z,6.77
2019-03-16T01:21:41.122Z,6.71
2019-03-16T01:22:41.109Z,6.71
2019-03-16T01:23:41.106Z,6.76
2019-03-16T01:24:41.099Z,6.77
2019-03-16T01:25:41.095Z,6.74
2019-03-16T01:26:41.087Z,6.73
2019-03-16T01:27:41.072Z,6.74
2019-03-16T01:28:41.052Z,6.67
2019-03-16T01:29:41.048Z,6.66
2019-03-16T01:30:41.039Z,6.70
2019-03-16T01:31:41.032Z,6.64
2019-03-16T01:32:41.196Z,6.56
2019-03-16T01:33:41.000Z,6.67
2019-03-16T01:34:44.019Z,6.61
2019-03-16T01:35:40.983Z,6.64
2019-03-16T01:36:40.965Z,6.62
2019-03-16T01:37:40.957Z,6.64
2019-03-16T01:38:40.950Z,6.62
2019-03-16T01:39:40.933Z,6.64
2019-03-16T01:40:41.005Z,6.64
2019-03-16T01:41:40.912Z,6.71
2019-03-16T01:42:40.923Z,6.74
2019-03-16T01:43:40.916Z,6.76
2019-03-16T01:44:40.890Z,6.67
2019-03-16T01:45:40.871Z,6.76
2019-03-16T01:46:40.867Z,6.76
2019-03-16T01:47:40.845Z,6.79
2019-03-16T01:48:40.855Z,6.80
2019-03-16T01:49:40.843Z,6.81
2019-03-16T01:50:40.813Z,6.77
2019-03-16T01:51:40.809Z,6.73
2019-03-16T01:52:40.799Z,6.73
2019-03-16T01:53:40.805Z,6.71
2019-03-16T01:54:40.780Z,6.69
2019-03-16T01:55:40.775Z,6.62
2019-03-16T01:56:40.754Z,6.69
2019-03-16T01:57:40.739Z,6.62
2019-03-16T01:58:40.734Z,6.64
2019-03-16T01:59:40.741Z,6.76
2019-03-16T02:00:40.717Z,6.79
2019-03-16T02:01:40.766Z,6.67
2019-03-16T02:02:53.776Z,6.67
2019-03-16T02:03:41.688Z,6.58
2019-03-16T02:04:40.673Z,6.64
2019-03-16T02:05:40.664Z,6.62
2019-03-16T02:06:40.662Z,6.62
2019-03-16T02:07:40.651Z,6.66
2019-03-16T02:08:40.630Z,6.64
2019-03-16T02:09:40.619Z,6.71
2019-03-16T02:10:40.636Z,6.69
2019-03-16T02:11:40.603Z,6.74
2019-03-16T02:12:40.600Z,6.76
2019-03-16T02:13:40.596Z,6.77
2019-03-16T02:14:40.563Z,6.77
2019-03-16T02:15:40.547Z,6.71
2019-03-16T02:16:40.571Z,6.71
2019-03-16T02:17:40.540Z,6.74
2019-03-16T02:18:40.523Z,6.79
2019-03-16T02:19:40.532Z,6.77
2019-03-16T02:20:40.505Z,6.73
2019-03-16T02:21:40.649Z,6.67
2019-03-16T02:22:40.492Z,6.64
2019-03-16T02:23:40.472Z,6.64
2019-03-16T02:24:40.462Z,6.64
2019-03-16T02:25:40.540Z,6.66
2019-03-16T02:26:40.456Z,6.62
2019-03-16T02:27:40.425Z,6.64
2019-03-16T02:28:40.421Z,6.64
2019-03-16T02:29:40.410Z,6.73
2019-03-16T02:30:40.411Z,6.69
2019-03-16T02:31:40.386Z,6.61
2019-03-16T02:32:40.367Z,6.69
2019-03-16T02:33:40.365Z,6.66
2019-03-16T02:34:40.372Z,6.69
2019-03-16T02:35:40.346Z,6.62
2019-03-16T02:36:40.447Z,6.66
2019-03-16T02:37:40.309Z,6.70
2019-03-16T02:38:40.311Z,6.62
2019-03-16T02:39:40.321Z,6.69
2019-03-16T02:40:40.292Z,6.70
2019-03-16T02:41:40.287Z,6.56
2019-03-16T02:42:40.267Z,6.62
2019-03-16T02:43:40.252Z,6.58
2019-03-16T02:44:40.242Z,6.55
2019-03-16T02:45:40.255Z,6.55
2019-03-16T02:46:40.254Z,6.59
2019-03-16T02:47:40.227Z,6.46
2019-03-16T02:48:40.209Z,6.52
2019-03-16T02:49:40.189Z,6.46
2019-03-16T02:50:40.185Z,6.46
2019-03-16T02:51:40.174Z,6.49
2019-03-16T02:52:40.180Z,6.52
2019-03-16T02:53:40.169Z,6.54
2019-03-16T02:54:40.142Z,6.58
2019-03-16T02:55:40.131Z,6.52
2019-03-16T02:56:40.149Z,6.55
2019-03-16T02:57:40.127Z,6.67
2019-03-16T02:58:40.105Z,6.62
2019-03-16T02:59:40.091Z,6.59
2019-03-16T03:00:40.198Z,6.64
2019-03-16T03:01:40.061Z,6.67
2019-03-16T03:02:40.049Z,6.59
2019-03-16T03:03:40.044Z,6.55
2019-03-16T03:04:40.041Z,6.59
2019-03-16T03:05:40.030Z,6.52
2019-03-16T03:06:40.007Z,6.59
2019-03-16T03:07:39.994Z,6.61
2019-03-16T03:08:39.996Z,6.61
2019-03-16T03:09:40.006Z,6.59
2019-03-16T03:10:39.974Z,6.58
2019-03-16T03:11:39.983Z,6.58
2019-03-16T03:12:39.945Z,6.55
2019-03-16T03:13:39.943Z,6.56
2019-03-16T03:14:39.938Z,6.52
2019-03-16T03:15:39.932Z,6.46
2019-03-16T03:16:39.901Z,6.46
2019-03-16T03:17:39.913Z,6.48
2019-03-16T03:18:39.889Z,6.46
2019-03-16T03:19:39.866Z,6.46
2019-03-16T03:20:39.878Z,6.51
2019-03-16T03:21:39.863Z,6.51
2019-03-16T03:22:39.843Z,6.44
2019-03-16T03:23:39.848Z,6.40
2019-03-16T03:24:43.987Z,6.44
2019-03-16T03:25:39.813Z,6.48
2019-03-16T03:26:39.808Z,6.44
2019-03-16T03:27:39.789Z,6.44
2019-03-16T03:28:39.806Z,6.58
2019-03-16T03:29:39.786Z,6.62
2019-03-16T03:30:39.764Z,6.56
2019-03-16T03:31:39.752Z,6.61
2019-03-16T03:32:39.793Z,6.61
2019-03-16T03:33:59.215Z,6.55
2019-03-16T03:34:40.710Z,6.58
2019-03-16T03:35:39.706Z,6.52
2019-03-16T03:36:39.697Z,6.51
2019-03-16T03:37:39.683Z,6.48
2019-03-16T03:38:39.689Z,6.52
2019-03-16T03:39:39.654Z,6.52
2019-03-16T03:40:39.655Z,6.37
2019-03-16T03:41:39.644Z,6.46
2019-03-16T03:42:39.642Z,6.38
2019-03-16T03:43:39.619Z,6.38
2019-03-16T03:44:39.602Z,6.41
2019-03-16T03:45:39.583Z,6.31
2019-03-16T03:46:39.589Z,6.28
2019-03-16T03:47:39.595Z,6.36
2019-03-16T03:48:39.566Z,6.40
2019-03-16T03:49:39.562Z,6.36
2019-03-16T03:50:39.550Z,6.31
2019-03-16T03:51:39.541Z,6.33
2019-03-16T03:52:39.523Z,6.30
2019-03-16T03:53:41.309Z,6.31
2019-03-16T03:54:39.504Z,6.33
2019-03-16T03:55:39.502Z,6.34
2019-03-16T03:56:39.481Z,6.30
2019-03-16T03:57:39.475Z,6.31
2019-03-16T03:58:39.467Z,6.31
2019-03-16T03:59:39.443Z,6.34
2019-03-16T04:00:39.442Z,6.41
2019-03-16T04:01:39.419Z,6.34
2019-03-16T04:02:39.455Z,6.41
2019-03-16T04:03:39.408Z,6.38
2019-03-16T04:04:39.408Z,6.40
2019-03-16T04:05:39.379Z,6.36
2019-03-16T04:06:39.369Z,6.30
2019-03-16T04:07:39.360Z,6.33
2019-03-16T04:08:39.353Z,6.37
2019-03-16T04:09:39.342Z,6.33
2019-03-16T04:10:39.348Z,6.33
2019-03-16T04:11:39.326Z,6.36
2019-03-16T04:12:39.320Z,6.28
2019-03-16T04:13:39.296Z,6.27
2019-03-16T04:14:39.299Z,6.27
2019-03-16T04:15:39.305Z,6.19
2019-03-16T04:16:39.279Z,6.25
2019-03-16T04:17:39.323Z,6.28
2019-03-16T04:18:39.250Z,6.22
2019-03-16T04:19:39.228Z,6.30
2019-03-16T04:20:39.217Z,6.27
2019-03-16T04:21:39.212Z,6.25
2019-03-16T04:22:39.218Z,6.11
2019-03-16T04:23:39.190Z,6.12
2019-03-16T04:24:39.179Z,6.18
2019-03-16T04:25:39.169Z,6.15
2019-03-16T04:26:39.154Z,6.14
2019-03-16T04:27:39.169Z,6.09
2019-03-16T04:28:39.137Z,6.09
2019-03-16T04:29:39.135Z,6.19
2019-03-16T04:30:39.115Z,6.15
2019-03-16T04:31:39.109Z,6.12
2019-03-16T04:32:39.084Z,6.22
2019-03-16T04:33:39.077Z,6.21
2019-03-16T04:34:39.082Z,6.25
2019-03-16T04:35:39.052Z,6.18
2019-03-16T04:36:39.049Z,6.17
2019-03-16T04:37:39.059Z,6.15
2019-03-16T04:38:39.027Z,6.14
2019-03-16T04:39:39.028Z,6.14
2019-03-16T04:40:39.010Z,6.15
2019-03-16T04:41:38.992Z,6.12
2019-03-16T04:42:38.984Z,6.19
2019-03-16T04:43:38.968Z,6.18
2019-03-16T04:44:38.967Z,6.12
2019-03-16T04:45:38.965Z,6.11
2019-03-16T04:46:38.949Z,6.17
2019-03-16T04:47:38.976Z,6.19
2019-03-16T04:48:38.911Z,6.06
2019-03-16T04:49:38.916Z,6.17
2019-03-16T04:50:38.902Z,6.21
2019-03-16T04:51:38.897Z,6.12
2019-03-16T04:52:38.877Z,6.18
2019-03-16T04:53:38.857Z,6.22
2019-03-16T04:54:38.852Z,6.18
2019-03-16T04:55:38.849Z,6.17
2019-03-16T04:56:38.825Z,6.14
2019-03-16T04:57:38.847Z,6.21
2019-03-16T04:58:38.810Z,6.14
2019-03-16T04:59:38.788Z,6.18
2019-03-16T05:00:38.792Z,6.18
2019-03-16T05:01:38.795Z,6.15
2019-03-16T05:02:38.777Z,6.18
2019-03-16T05:03:38.776Z,6.14
2019-03-16T05:04:42.670Z,6.18
2019-03-16T05:05:38.728Z,6.15
2019-03-16T05:06:38.716Z,6.11
2019-03-16T05:07:38.715Z,6.14
2019-03-16T05:08:38.709Z,6.12
2019-03-16T05:09:38.709Z,6.21
2019-03-16T05:10:38.686Z,6.15
2019-03-16T05:11:38.673Z,6.17
2019-03-16T05:12:38.651Z,6.30
2019-03-16T05:13:38.671Z,6.25
2019-03-16T05:14:38.639Z,6.22
2019-03-16T05:15:38.643Z,6.21
2019-03-16T05:16:38.608Z,6.21
2019-03-16T05:17:38.604Z,6.25
2019-03-16T05:18:38.621Z,6.27
2019-03-16T05:19:38.592Z,6.27
2019-03-16T05:20:38.579Z,6.25
2019-03-16T05:21:38.556Z,6.21
2019-03-16T05:22:38.553Z,6.14
2019-03-16T05:23:38.537Z,6.30
2019-03-16T05:24:38.528Z,6.17
2019-03-16T05:25:38.531Z,6.14
2019-03-16T05:26:38.525Z,6.12
2019-03-16T05:27:38.493Z,6.15
2019-03-16T05:28:38.577Z,6.12
2019-03-16T05:29:38.475Z,6.08
2019-03-16T05:30:38.460Z,6.21
2019-03-16T05:31:38.472Z,6.19
2019-03-16T05:32:38.463Z,6.17
2019-03-16T05:33:38.444Z,6.25
2019-03-16T05:34:38.424Z,6.08
2019-03-16T05:35:38.421Z,6.21
2019-03-16T05:36:38.426Z,6.09
2019-03-16T05:37:38.399Z,6.09
2019-03-16T05:38:38.373Z,6.28
2019-03-16T05:39:38.375Z,6.17
2019-03-16T05:40:38.388Z,6.11
2019-03-16T05:41:38.347Z,6.19
2019-03-16T05:42:38.330Z,6.22
2019-03-16T05:43:38.329Z,6.30
2019-03-16T05:44:38.311Z,6.22
2019-03-16T05:45:38.299Z,6.36
2019-03-16T05:46:38.290Z,6.27
2019-03-16T05:47:38.288Z,6.34
2019-03-16T05:48:38.272Z,6.33
2019-03-16T05:49:38.286Z,6.34
2019-03-16T05:50:38.243Z,6.33
2019-03-16T05:51:38.240Z,6.37
2019-03-16T05:52:38.231Z,6.28
2019-03-16T05:53:38.216Z,6.31
2019-03-16T05:54:38.208Z,6.34
2019-03-16T05:55:38.213Z,6.41
2019-03-16T05:56:38.184Z,6.36
2019-03-16T05:57:38.167Z,6.34
2019-03-16T05:58:38.161Z,6.38
2019-03-16T05:59:38.153Z,6.38
2019-03-16T06:00:38.165Z,6.44
2019-03-16T06:01:38.140Z,6.46
2019-03-16T06:02:38.197Z,6.48
2019-03-16T06:03:38.108Z,6.43
2019-03-16T06:04:38.089Z,6.59
2019-03-16T06:05:38.178Z,6.55
2019-03-16T06:06:38.071Z,6.54
2019-03-16T06:07:38.059Z,6.69
2019-03-16T06:08:38.059Z,6.66
2019-03-16T06:09:38.057Z,6.69
2019-03-16T06:10:38.032Z,6.64
2019-03-16T06:11:38.025Z,6.66
2019-03-16T06:12:38.048Z,6.74
2019-03-16T06:13:38.011Z,6.73
2019-03-16T06:14:37.985Z,6.76
2019-03-16T06:15:37.985Z,6.74
2019-03-16T06:16:38.079Z,6.85
2019-03-16T06:17:37.966Z,6.91
2019-03-16T06:18:37.946Z,6.89
2019-03-16T06:19:37.937Z,6.97
2019-03-16T06:20:37.925Z,6.99
2019-03-16T06:21:37.911Z,6.99
2019-03-16T06:22:37.903Z,7.12
2019-03-16T06:23:37.922Z,7.03
2019-03-16T06:24:37.893Z,7.09
2019-03-16T06:25:37.888Z,7.05
2019-03-16T06:26:37.862Z,7.13
2019-03-16T06:27:37.861Z,7.20
2019-03-16T06:28:37.848Z,7.31
2019-03-16T06:29:37.833Z,7.28
2019-03-16T06:30:37.872Z,7.24
2019-03-16T06:31:37.807Z,7.20
2019-03-16T06:32:37.801Z,7.24
2019-03-16T06:33:37.792Z,7.16
2019-03-16T06:34:37.783Z,7.20
2019-03-16T06:35:37.790Z,7.20
2019-03-16T06:36:37.870Z,7.27
2019-03-16T06:37:37.751Z,7.45
2019-03-16T06:38:37.740Z,7.46
2019-03-16T06:39:37.720Z,7.30
2019-03-16T06:40:37.704Z,7.43
2019-03-16T06:41:37.695Z,7.45
2019-03-16T06:42:37.700Z,7.55
2019-03-16T06:43:37.683Z,7.61
2019-03-16T06:44:37.672Z,7.64
2019-03-16T06:45:37.663Z,7.63
2019-03-16T06:46:37.645Z,7.67
2019-03-16T06:47:37.633Z,7.67
2019-03-16T06:48:37.661Z,7.68
2019-03-16T06:49:37.616Z,7.64
2019-03-16T06:50:37.612Z,7.50
2019-03-16T06:51:37.650Z,7.52
2019-03-16T06:52:37.576Z,7.48
2019-03-16T06:53:37.583Z,7.55
2019-03-16T06:54:37.572Z,7.60
2019-03-16T06:55:37.695Z,7.67
2019-03-16T06:56:37.536Z,7.61
2019-03-16T06:57:37.532Z,7.75
2019-03-16T06:58:37.637Z,7.75
2019-03-16T06:59:37.519Z,7.80
2019-03-16T07:00:37.495Z,7.86
2019-03-16T07:01:37.483Z,8.01
2019-03-16T07:02:37.472Z,8.08
2019-03-16T07:03:37.606Z,8.16
2019-03-16T07:04:37.455Z,8.15
2019-03-16T07:05:38.898Z,8.22
2019-03-16T07:06:37.427Z,8.19
2019-03-16T07:07:37.427Z,8.26
2019-03-16T07:08:37.408Z,8.22
2019-03-16T07:09:37.406Z,8.16
2019-03-16T07:10:37.388Z,8.16
2019-03-16T07:11:37.380Z,8.22
2019-03-16T07:12:37.388Z,8.20
2019-03-16T07:13:37.354Z,8.10
2019-03-16T07:14:37.355Z,8.04
2019-03-16T07:15:37.330Z,7.98
2019-03-16T07:16:37.325Z,8.15
2019-03-16T07:17:37.317Z,8.07
2019-03-16T07:18:37.304Z,8.02
2019-03-16T07:19:37.296Z,8.18
2019-03-16T07:20:37.305Z,8.20
2019-03-16T07:21:37.265Z,8.19
2019-03-16T07:22:37.265Z,8.15
2019-03-16T07:23:37.327Z,8.30
2019-03-16T07:24:37.280Z,8.26
2019-03-16T07:25:37.233Z,8.25
2019-03-16T07:26:37.215Z,8.23
2019-03-16T07:27:37.208Z,8.23
2019-03-16T07:28:37.198Z,8.30
2019-03-16T07:29:37.191Z,8.30
2019-03-16T07:30:37.452Z,8.29
2019-03-16T07:31:37.162Z,8.30
2019-03-16T07:32:37.149Z,8.36
2019-03-16T07:33:37.136Z,8.45
2019-03-16T07:34:37.158Z,8.62
2019-03-16T07:35:37.128Z,8.70
2019-03-16T07:36:37.117Z,8.83
2019-03-16T07:37:37.109Z,8.98
2019-03-16T07:38:37.087Z,9.08
2019-03-16T07:39:37.077Z,9.18
2019-03-16T07:40:37.065Z,9.43
2019-03-16T07:41:37.065Z,9.61
2019-03-16T07:42:37.074Z,9.89
2019-03-16T07:43:37.028Z,9.93
2019-03-16T07:44:37.024Z,10.14
2019-03-16T07:45:37.017Z,10.23
2019-03-16T07:46:37.018Z,10.11
2019-03-16T07:47:37.036Z,10.15
2019-03-16T07:48:36.973Z,10.04
2019-03-16T07:49:38.981Z,10.11
2019-03-16T07:50:36.944Z,9.79
2019-03-16T07:51:36.944Z,9.91
2019-03-16T07:52:37.081Z,10.20
2019-03-16T07:53:36.933Z,9.90
2019-03-16T07:54:36.914Z,9.72
2019-03-16T07:55:36.902Z,9.74
2019-03-16T07:56:36.888Z,9.64
2019-03-16T07:57:40.482Z,9.53
2019-03-16T07:58:36.878Z,9.50
2019-03-16T07:59:37.359Z,9.53
2019-03-16T08:00:36.853Z,9.32
2019-03-16T08:01:36.835Z,9.17
2019-03-16T08:02:36.835Z,9.14
2019-03-16T08:03:36.821Z,9.21
2019-03-16T08:04:36.818Z,9.35
2019-03-16T08:05:36.797Z,9.61
2019-03-16T08:06:36.783Z,9.84
2019-03-16T08:07:36.761Z,9.68
2019-03-16T08:08:36.754Z,9.93
2019-03-16T08:09:36.758Z,9.86
2019-03-16T08:10:36.772Z,9.74
2019-03-16T08:11:36.730Z,9.89
2019-03-16T08:12:36.714Z,10.14
2019-03-16T08:13:36.705Z,10.73
2019-03-16T08:14:36.695Z,10.63
2019-03-16T08:15:36.692Z,10.67
2019-03-16T08:16:36.674Z,10.89
2019-03-16T08:17:36.654Z,10.88
2019-03-16T08:18:36.674Z,10.73
2019-03-16T08:19:36.641Z,10.51
2019-03-16T08:20:36.625Z,10.38
2019-03-16T08:21:36.624Z,10.33
2019-03-16T08:22:36.614Z,10.26
2019-03-16T08:23:36.612Z,10.04
2019-03-16T08:24:36.586Z,9.78
2019-03-16T08:25:36.574Z,9.58
2019-03-16T08:26:36.573Z,9.36
2019-03-16T08:27:36.557Z,9.24
2019-03-16T08:28:36.540Z,8.99
2019-03-16T08:29:36.537Z,8.92
2019-03-16T08:30:36.603Z,8.80
2019-03-16T08:31:36.515Z,8.73
2019-03-16T08:32:36.543Z,8.89
2019-03-16T08:33:36.487Z,8.84
2019-03-16T08:34:36.748Z,9.04
2019-03-16T08:35:36.542Z,9.11
2019-03-16T08:36:36.469Z,9.23
2019-03-16T08:37:36.444Z,9.17
2019-03-16T08:38:36.442Z,9.23
2019-03-16T08:39:36.448Z,9.14
2019-03-16T08:40:36.427Z,9.15
2019-03-16T08:41:36.492Z,9.28
2019-03-16T08:42:36.396Z,9.48
2019-03-16T08:43:36.388Z,9.75
2019-03-16T08:44:36.400Z,10.07
2019-03-16T08:45:36.358Z,10.17
2019-03-16T08:46:36.647Z,10.18
2019-03-16T08:47:36.368Z,10.12
2019-03-16T08:48:36.320Z,9.87
2019-03-16T08:49:36.320Z,9.97
2019-03-16T08:50:36.308Z,9.94
2019-03-16T08:51:36.295Z,9.90
2019-03-16T08:52:36.282Z,9.90
2019-03-16T08:53:36.289Z,9.94
2019-03-16T08:54:36.264Z,9.86
2019-03-16T08:55:36.270Z,9.91
2019-03-16T08:56:36.240Z,9.79
2019-03-16T08:57:36.231Z,9.87
2019-03-16T08:58:36.215Z,10.22
2019-03-16T08:59:36.216Z,10.53
2019-03-16T09:00:36.206Z,10.78
2019-03-16T09:01:36.221Z,10.52
2019-03-16T09:02:36.206Z,10.27
2019-03-16T09:03:43.664Z,10.02
2019-03-16T09:04:37.174Z,9.78
2019-03-16T09:05:36.160Z,9.74
2019-03-16T09:06:36.130Z,9.60
2019-03-16T09:07:36.255Z,9.48
2019-03-16T09:08:36.106Z,9.51
2019-03-16T09:09:36.131Z,9.72
2019-03-16T09:10:36.086Z,9.81
2019-03-16T09:11:36.090Z,9.97
2019-03-16T09:12:36.085Z,9.94
2019-03-16T09:13:36.050Z,9.72
2019-03-16T09:14:36.039Z,9.71
2019-03-16T09:15:36.026Z,9.64
2019-03-16T09:16:36.015Z,9.58
2019-03-16T09:17:36.018Z,9.74
2019-03-16T09:18:35.994Z,9.61
2019-03-16T09:19:35.987Z,9.51
2019-03-16T09:20:35.975Z,9.57
2019-03-16T09:21:35.968Z,9.65
2019-03-16T09:22:35.972Z,9.78
2019-03-16T09:23:35.952Z,9.83
2019-03-16T09:24:35.937Z,9.91
2019-03-16T09:25:35.918Z,10.33
2019-03-16T09:26:35.914Z,10.29
2019-03-16T09:27:35.902Z,9.97
2019-03-16T09:28:35.887Z,9.83
2019-03-16T09:29:35.893Z,9.72
2019-03-16T09:30:35.869Z,9.94
2019-03-16T09:31:35.850Z,10.18
2019-03-16T09:32:35.847Z,10.09
2019-03-16T09:33:35.831Z,9.93
2019-03-16T09:34:35.827Z,9.89
2019-03-16T09:35:35.858Z,9.83
2019-03-16T09:36:35.797Z,9.74
2019-03-16T09:37:35.788Z,9.60
2019-03-16T09:38:35.786Z,9.76
2019-03-16T09:39:35.778Z,9.75
2019-03-16T09:40:35.765Z,9.76
2019-03-16T09:41:35.747Z,9.72
2019-03-16T09:42:35.739Z,9.97
2019-03-16T09:43:35.717Z,10.20
2019-03-16T09:44:35.714Z,10.18
2019-03-16T09:45:35.703Z,10.02
2019-03-16T09:46:35.695Z,10.08
2019-03-16T09:47:35.680Z,10.11
2019-03-16T09:48:35.684Z,10.14
2019-03-16T09:49:35.660Z,10.17
2019-03-16T09:50:35.645Z,10.18
2019-03-16T09:51:35.637Z,10.12
2019-03-16T09:52:35.628Z,10.20
2019-03-16T09:53:35.616Z,10.23
2019-03-16T09:54:35.603Z,10.18
2019-03-16T09:55:35.591Z,10.14
2019-03-16T09:56:35.598Z,10.27
2019-03-16T09:57:35.580Z,10.45
2019-03-16T09:58:35.590Z,10.64
2019-03-16T09:59:35.558Z,10.60
2019-03-16T10:00:35.542Z,10.60
2019-03-16T10:01:35.531Z,10.74
2019-03-16T10:02:35.531Z,10.52
2019-03-16T10:03:35.504Z,10.67
2019-03-16T10:04:35.506Z,10.92
2019-03-16T10:05:35.480Z,10.97
2019-03-16T10:06:35.479Z,10.94
2019-03-16T10:07:35.465Z,10.71
2019-03-16T10:08:35.457Z,10.70
2019-03-16T10:09:35.441Z,10.64
2019-03-16T10:10:35.429Z,10.71
2019-03-16T10:11:35.420Z,10.73
2019-03-16T10:12:35.428Z,10.76
2019-03-16T10:13:35.408Z,10.59
2019-03-16T10:14:37.249Z,10.34
2019-03-16T10:15:35.373Z,10.25
2019-03-16T10:16:35.379Z,10.18
2019-03-16T10:17:35.358Z,10.23
2019-03-16T10:18:35.361Z,10.15
2019-03-16T10:19:35.333Z,10.17
2019-03-16T10:20:35.325Z,10.09
2019-03-16T10:21:35.320Z,10.12
2019-03-16T10:22:35.304Z,10.25
2019-03-16T10:23:35.310Z,10.15
2019-03-16T10:24:35.282Z,10.08
2019-03-16T10:25:35.272Z,9.99
2019-03-16T10:26:37.564Z,9.99
2019-03-16T10:27:35.262Z,9.94
2019-03-16T10:28:43.677Z,9.83
2019-03-16T10:29:36.225Z,9.97
2019-03-16T10:30:35.240Z,9.86
2019-03-16T10:31:35.214Z,9.90
2019-03-16T10:32:35.200Z,9.97
2019-03-16T10:33:35.183Z,9.99
2019-03-16T10:34:35.188Z,9.90
2019-03-16T10:35:35.165Z,9.71
2019-03-16T10:36:35.232Z,9.78
2019-03-16T10:37:35.175Z,9.74
2019-03-16T10:38:37.279Z,9.89
2019-03-16T10:39:35.126Z,9.86
2019-03-16T10:40:35.114Z,9.71
2019-03-16T10:41:35.098Z,9.84
2019-03-16T10:42:35.093Z,9.79
2019-03-16T10:43:35.084Z,9.69
2019-03-16T10:44:35.062Z,9.66
2019-03-16T10:45:35.061Z,9.68
2019-03-16T10:46:35.048Z,9.69
2019-03-16T10:47:35.049Z,9.75
2019-03-16T10:48:35.037Z,9.81
2019-03-16T10:49:35.014Z,9.86
2019-03-16T10:50:35.009Z,9.83
2019-03-16T10:51:34.991Z,9.84
2019-03-16T10:52:34.973Z,9.93
2019-03-16T10:53:34.976Z,9.91
2019-03-16T10:54:34.958Z,9.69
2019-03-16T10:55:34.954Z,9.75
2019-03-16T10:56:34.939Z,9.76
2019-03-16T10:57:34.945Z,9.71
2019-03-16T10:58:34.927Z,9.69
2019-03-16T10:59:34.907Z,9.71
2019-03-16T11:00:34.934Z,9.60
2019-03-16T11:01:34.890Z,9.66
2019-03-16T11:02:34.879Z,9.58
2019-03-16T11:03:34.863Z,9.58
2019-03-16T11:04:34.862Z,9.51
2019-03-16T11:05:34.846Z,9.46
2019-03-16T11:06:34.838Z,9.42
2019-03-16T11:07:34.818Z,9.43
2019-03-16T11:08:34.811Z,9.35
2019-03-16T11:09:34.795Z,9.28
2019-03-16T11:10:34.803Z,9.33
2019-03-16T11:11:34.769Z,9.28
2019-03-16T11:12:34.767Z,9.21
2019-03-16T11:13:34.761Z,9.02
2019-03-16T11:14:34.755Z,9.05
2019-03-16T11:15:34.737Z,8.92
2019-03-16T11:16:34.727Z,8.77
2019-03-16T11:17:34.721Z,8.84
2019-03-16T11:18:34.700Z,8.81
2019-03-16T11:19:34.690Z,8.68
2019-03-16T11:20:34.703Z,8.63
2019-03-16T11:21:34.678Z,8.56
2019-03-16T11:22:34.671Z,8.41
2019-03-16T11:23:34.645Z,8.41
2019-03-16T11:24:34.635Z,8.43
2019-03-16T11:25:34.627Z,8.36
2019-03-16T11:26:34.617Z,8.40
2019-03-16T11:27:34.604Z,8.34
2019-03-16T11:28:34.591Z,8.43
2019-03-16T11:29:34.583Z,8.52
2019-03-16T11:30:34.568Z,8.63
2019-03-16T11:31:34.564Z,8.65
2019-03-16T11:32:34.555Z,8.52
2019-03-16T11:33:34.549Z,8.55
2019-03-16T11:34:34.532Z,8.53
2019-03-16T11:35:34.518Z,8.41
2019-03-16T11:36:34.512Z,8.43
2019-03-16T11:37:34.493Z,8.41
2019-03-16T11:38:34.495Z,8.37
2019-03-16T11:39:34.489Z,8.33
2019-03-16T11:40:34.468Z,8.22
2019-03-16T11:41:34.452Z,8.19
2019-03-16T11:42:34.452Z,8.01
2019-03-16T11:43:34.436Z,8.04
2019-03-16T11:44:34.431Z,7.98
2019-03-16T11:45:34.410Z,7.87
2019-03-16T11:46:34.404Z,7.83
2019-03-16T11:47:34.391Z,7.74
2019-03-16T11:48:34.380Z,7.80
2019-03-16T11:49:34.370Z,7.83
2019-03-16T11:50:34.360Z,7.68
2019-03-16T11:51:34.346Z,7.55
2019-03-16T11:52:34.335Z,7.50
2019-03-16T11:53:34.324Z,7.49
2019-03-16T11:54:34.309Z,7.40
2019-03-16T11:55:34.307Z,7.45
2019-03-16T11:56:34.317Z,7.43
2019-03-16T11:57:34.281Z,7.42
2019-03-16T11:58:34.265Z,7.42
2019-03-16T11:59:34.265Z,7.31
2019-03-16T12:00:34.254Z,7.31
2019-03-16T12:01:34.240Z,7.20
2019-03-16T12:02:34.225Z,7.21
2019-03-16T12:03:34.216Z,7.20
2019-03-16T12:04:34.206Z,7.13
2019-03-16T12:05:34.207Z,7.13
2019-03-16T12:06:34.195Z,7.24
2019-03-16T12:07:34.177Z,7.31
2019-03-16T12:08:34.160Z,7.42
2019-03-16T12:09:34.166Z,7.35
2019-03-16T12:10:34.138Z,7.50
2019-03-16T12:11:34.134Z,7.46
2019-03-16T12:12:34.125Z,7.45
2019-03-16T12:13:34.124Z,7.40
2019-03-16T12:14:34.091Z,7.42
2019-03-16T12:15:34.083Z,7.37
2019-03-16T12:16:34.074Z,7.32
2019-03-16T12:17:34.058Z,7.45
2019-03-16T12:18:34.057Z,7.40
2019-03-16T12:19:34.095Z,7.32
2019-03-16T12:20:34.031Z,7.23
2019-03-16T12:21:34.020Z,7.05
2019-03-16T12:22:34.019Z,7.07
2019-03-16T12:23:34.000Z,7.02
2019-03-16T12:24:34.003Z,7.06
2019-03-16T12:25:33.976Z,6.92
2019-03-16T12:26:33.960Z,6.74
2019-03-16T12:27:34.065Z,6.77
2019-03-16T12:28:33.954Z,6.80
2019-03-16T12:29:34.518Z,6.69
2019-03-16T12:30:33.920Z,6.73
2019-03-16T12:31:33.911Z,6.77
2019-03-16T12:32:33.905Z,6.71
2019-03-16T12:33:33.894Z,6.77
2019-03-16T12:34:33.878Z,6.77
2019-03-16T12:35:33.873Z,6.74
2019-03-16T12:36:33.853Z,6.81
2019-03-16T12:37:33.847Z,6.91
2019-03-16T12:38:33.830Z,6.84
2019-03-16T12:39:35.619Z,6.84
2019-03-16T12:40:33.817Z,6.74
2019-03-16T12:41:33.817Z,6.73
2019-03-16T12:42:33.804Z,6.66
2019-03-16T12:43:33.788Z,6.64
2019-03-16T12:44:33.772Z,6.62
2019-03-16T12:45:33.775Z,6.64
2019-03-16T12:46:33.763Z,6.55
2019-03-16T12:47:33.745Z,6.51
2019-03-16T12:48:33.732Z,6.48
2019-03-16T12:49:33.723Z,6.44
2019-03-16T12:50:33.703Z,6.46
2019-03-16T12:51:33.695Z,6.41
2019-03-16T12:52:33.684Z,6.38
2019-03-16T12:53:33.679Z,6.40
2019-03-16T12:54:33.698Z,6.37
2019-03-16T12:55:33.672Z,6.34
2019-03-16T12:56:33.668Z,6.43
2019-03-16T12:57:33.637Z,6.40
2019-03-16T12:58:33.624Z,6.34
2019-03-16T12:59:45.982Z,6.33
2019-03-16T13:00:34.598Z,6.33
2019-03-16T13:01:33.600Z,6.28
2019-03-16T13:02:33.583Z,6.31
2019-03-16T13:03:33.576Z,6.21
2019-03-16T13:04:33.570Z,6.22
2019-03-16T13:05:33.545Z,6.14
2019-03-16T13:06:33.545Z,6.21
2019-03-16T13:07:33.523Z,6.21
2019-03-16T13:08:33.525Z,6.11
2019-03-16T13:09:33.512Z,5.97
2019-03-16T13:10:33.499Z,6.00
2019-03-16T13:11:33.485Z,5.99
2019-03-16T13:12:33.479Z,5.97
2019-03-16T13:13:33.465Z,6.00
2019-03-16T13:14:33.453Z,5.96
2019-03-16T13:15:33.447Z,6.01